Time;durP1;ratioP1;P1;durP2;ratioP2;P2;SDS_P1;SDS_P2;PMS_P1;PMS_P2;Temp;Humidity;BMP_temperature;BMP_pressure;BME280_temperature;BME280_humidity;BME280_pressure;Samples;Min_cycle;Max_cycle;Signal;HPM_P1;HPM_P2
2023/03/22 00:01:24;;;;;;;4.05;3.65;;;12.90;99.90;;;;;;4977075;28;20195;-76
2023/03/22 00:03:51;;;;;;;4.10;3.33;;;12.80;99.90;;;;;;4998544;28;20383;-76
2023/03/22 00:06:19;;;;;;;4.97;3.30;;;12.80;99.90;;;;;;4978640;28;20454;-73
2023/03/22 00:08:49;;;;;;;4.30;3.38;;;12.80;99.90;;;;;;4997743;28;20180;-74
2023/03/22 00:11:15;;;;;;;3.47;3.17;;;12.70;99.90;;;;;;4989869;28;20198;-76
2023/03/22 00:13:42;;;;;;;4.30;3.65;;;12.70;99.90;;;;;;4985664;28;20197;-76
2023/03/22 00:16:09;;;;;;;5.03;3.28;;;12.70;99.90;;;;;;4993215;28;20179;-74
2023/03/22 00:18:37;;;;;;;4.18;3.70;;;12.70;99.90;;;;;;4976910;28;20171;-73
2023/03/22 00:21:04;;;;;;;5.07;3.30;;;12.60;99.90;;;;;;5001919;28;20204;-66
2023/03/22 00:23:30;;;;;;;3.50;3.20;;;12.60;99.90;;;;;;4998288;28;20207;-64
2023/03/22 00:25:55;;;;;;;4.80;3.53;;;12.70;99.90;;;;;;4997848;28;20196;-61
2023/03/22 00:28:21;;;;;;;4.13;3.10;;;12.60;99.90;;;;;;5000345;28;20167;-67
2023/03/22 00:31:06;;;;;;;4.40;3.42;;;12.60;99.90;;;;;;4998096;28;20211;-65
2023/03/22 00:33:35;;;;;;;4.20;3.53;;;12.60;99.90;;;;;;5006002;28;20214;-79
2023/03/22 00:36:06;;;;;;;4.60;3.53;;;12.60;99.90;;;;;;4977717;28;20188;-79
2023/03/22 00:38:40;;;;;;;5.55;3.47;;;12.60;99.90;;;;;;4977212;28;20172;-79
2023/03/22 00:41:17;;;;;;;4.53;3.53;;;12.60;99.90;;;;;;4985513;28;20211;-79
2023/03/22 00:43:47;;;;;;;5.28;3.50;;;12.60;99.90;;;;;;4986337;28;20172;-73
2023/03/22 00:46:14;;;;;;;5.78;3.50;;;12.60;99.90;;;;;;4995557;28;20175;-73
2023/03/22 00:48:39;;;;;;;4.25;3.53;;;12.60;99.90;;;;;;4982420;28;20490;-77
2023/03/22 00:51:09;;;;;;;5.45;3.47;;;12.60;99.90;;;;;;4973234;28;20314;-79
2023/03/22 00:53:37;;;;;;;4.22;3.53;;;12.60;99.90;;;;;;4975691;28;20195;-75
2023/03/22 00:56:04;;;;;;;4.25;3.38;;;12.60;99.90;;;;;;4976860;28;20172;-78
2023/03/22 00:58:33;;;;;;;4.78;3.92;;;12.60;99.90;;;;;;4980552;28;20187;-79
2023/03/22 01:01:01;;;;;;;5.43;4.00;;;12.60;99.90;;;;;;4980766;28;20207;-76
2023/03/22 01:03:26;;;;;;;5.60;4.13;;;12.60;99.90;;;;;;4980471;28;20188;-78
2023/03/22 01:05:55;;;;;;;4.40;3.72;;;12.60;99.90;;;;;;4978719;28;20188;-75
2023/03/22 01:08:31;;;;;;;5.38;3.92;;;12.60;99.90;;;;;;4972093;28;20223;-79
2023/03/22 01:10:57;;;;;;;4.85;4.03;;;12.60;99.90;;;;;;4973824;28;20204;-76
2023/03/22 01:13:26;;;;;;;5.40;4.13;;;12.60;99.90;;;;;;4974870;28;20176;-78
2023/03/22 01:15:52;;;;;;;5.38;3.85;;;12.60;99.90;;;;;;4975524;28;20195;-80
2023/03/22 01:18:20;;;;;;;5.38;4.13;;;12.60;99.90;;;;;;4973819;28;20176;-74
2023/03/22 01:20:48;;;;;;;6.50;4.25;;;12.60;99.90;;;;;;4991518;28;20199;-78
2023/03/22 01:23:18;;;;;;;5.43;4.10;;;12.60;99.90;;;;;;4974709;28;20176;-78
2023/03/22 01:25:43;;;;;;;6.55;4.00;;;12.60;99.90;;;;;;4984358;28;20187;-77
2023/03/22 01:28:09;;;;;;;5.45;4.18;;;12.60;99.90;;;;;;4978604;28;20196;-79
2023/03/22 01:30:37;;;;;;;5.28;3.83;;;12.60;99.90;;;;;;4979926;28;20200;-77
2023/03/22 01:33:06;;;;;;;7.00;4.80;;;12.60;99.90;;;;;;4984854;28;20186;-78
2023/03/22 01:35:35;;;;;;;7.32;5.45;;;12.50;99.90;;;;;;4985083;28;20206;-77
2023/03/22 01:38:01;;;;;;;7.38;5.32;;;12.50;99.90;;;;;;5001027;28;20195;-76
2023/03/22 01:40:27;;;;;;;6.80;5.03;;;12.50;99.90;;;;;;4986074;28;20184;-78
2023/03/22 01:42:55;;;;;;;5.68;4.72;;;12.60;99.90;;;;;;4994110;28;20295;-77
2023/03/22 01:45:38;;;;;;;6.10;4.43;;;12.60;99.90;;;;;;4997273;28;20183;-77
2023/03/22 01:48:20;;;;;;;7.55;4.50;;;12.60;99.90;;;;;;4995385;28;20188;-76
2023/03/22 01:51:02;;;;;;;6.60;5.25;;;12.60;99.90;;;;;;4977736;28;20346;-76
2023/03/22 01:53:29;;;;;;;7.15;5.00;;;12.70;99.90;;;;;;4994703;28;20179;-76
2023/03/22 01:55:57;;;;;;;6.03;4.80;;;12.60;99.90;;;;;;4978880;28;20191;-77
2023/03/22 01:58:25;;;;;;;7.32;4.40;;;12.70;99.90;;;;;;4978614;28;20279;-75
2023/03/22 02:00:52;;;;;;;6.75;4.90;;;12.60;99.90;;;;;;4978174;28;20216;-77
2023/03/22 02:03:28;;;;;;;5.82;4.65;;;12.70;99.90;;;;;;4998765;28;20180;-77
2023/03/22 02:05:55;;;;;;;6.85;5.28;;;12.70;99.90;;;;;;4996520;28;20234;-77
2023/03/22 02:08:22;;;;;;;5.90;4.65;;;12.70;99.90;;;;;;4994257;28;20223;-79
2023/03/22 02:10:48;;;;;;;5.88;4.35;;;12.70;99.90;;;;;;4977748;28;20200;-78
2023/03/22 02:13:26;;;;;;;5.00;4.00;;;12.70;99.90;;;;;;4982831;28;20327;-77
2023/03/22 02:16:09;;;;;;;5.50;4.20;;;12.70;99.90;;;;;;4976511;28;20247;-77
2023/03/22 02:18:44;;;;;;;4.45;3.95;;;12.70;99.90;;;;;;4986265;28;20176;-78
2023/03/22 02:21:41;;;;;;;5.18;3.75;;;12.70;99.90;;;;;;4977095;28;20176;-75
2023/03/22 02:24:28;;;;;;;5.30;4.43;;;12.70;99.90;;;;;;4994052;28;20210;-76
2023/03/22 02:27:32;;;;;;;7.07;5.05;;;12.70;99.90;;;;;;4994771;28;20191;-75
2023/03/22 02:30:18;;;;;;;6.13;4.70;;;12.70;99.90;;;;;;4976891;28;20203;-77
2023/03/22 02:32:53;;;;;;;7.00;4.88;;;12.60;99.90;;;;;;4977564;28;20191;-76
2023/03/22 02:36:02;;;;;;;6.82;4.80;;;12.60;99.90;;;;;;4996123;28;20191;-76
2023/03/22 02:38:56;;;;;;;5.75;4.50;;;12.60;99.90;;;;;;4971897;28;20172;-73
2023/03/22 02:41:44;;;;;;;7.10;4.95;;;12.60;99.90;;;;;;4994013;28;20172;-77
2023/03/22 02:44:35;;;;;;;8.05;5.38;;;12.50;99.90;;;;;;4993149;28;20278;-75
2023/03/22 02:47:07;;;;;;;7.32;5.20;;;12.40;99.90;;;;;;4962806;28;20243;-73
2023/03/22 02:49:43;;;;;;;6.95;5.55;;;12.40;99.90;;;;;;4982325;28;20266;-75
2023/03/22 02:52:22;;;;;;;7.55;5.43;;;12.40;99.90;;;;;;4980700;28;20199;-75
2023/03/22 02:55:14;;;;;;;8.35;6.07;;;12.40;99.90;;;;;;4992502;28;20180;-74
2023/03/22 02:58:03;;;;;;;8.00;5.63;;;12.40;99.90;;;;;;4997912;28;20191;-74
2023/03/22 03:00:31;;;;;;;8.23;5.43;;;12.30;99.90;;;;;;4977521;28;20206;-77
2023/03/22 03:03:10;;;;;;;8.23;5.63;;;12.30;99.90;;;;;;4985921;28;20212;-76
2023/03/22 03:05:42;;;;;;;6.70;5.63;;;12.30;99.90;;;;;;4977804;28;20168;-75
2023/03/22 03:08:12;;;;;;;9.10;5.60;;;12.30;99.90;;;;;;4977485;28;20219;-77
2023/03/22 03:10:40;;;;;;;7.15;4.95;;;12.30;99.90;;;;;;4978136;28;20192;-76
2023/03/22 03:13:14;;;;;;;6.22;4.70;;;12.30;99.90;;;;;;4996480;28;20208;-77
2023/03/22 03:15:45;;;;;;;5.60;5.00;;;12.30;99.90;;;;;;4993387;28;20212;-75
2023/03/22 03:18:13;;;;;;;6.53;5.38;;;12.30;99.90;;;;;;4977355;28;20187;-74
2023/03/22 03:20:53;;;;;;;11.25;5.85;;;12.30;99.90;;;;;;4992669;28;20180;-75
2023/03/22 03:23:27;;;;;;;8.18;5.85;;;12.20;99.90;;;;;;4985765;28;20172;-77
2023/03/22 03:26:24;;;;;;;8.18;5.63;;;12.20;99.90;;;;;;4985541;28;20306;-74
2023/03/22 03:29:07;;;;;;;7.43;5.88;;;12.20;99.90;;;;;;4976633;28;20216;-75
2023/03/22 03:32:03;;;;;;;8.05;5.90;;;12.20;99.90;;;;;;4972137;28;20210;-75
2023/03/22 03:35:00;;;;;;;9.20;5.78;;;12.20;99.90;;;;;;4990789;28;20172;-77
2023/03/22 03:37:36;;;;;;;7.50;5.70;;;12.10;99.90;;;;;;4987698;28;20210;-77
2023/03/22 03:40:33;;;;;;;8.07;6.18;;;12.10;99.90;;;;;;4979440;28;20184;-78
2023/03/22 03:43:03;;;;;;;7.25;5.30;;;12.10;99.90;;;;;;4976245;28;20214;-75
2023/03/22 03:45:30;;;;;;;7.13;5.25;;;12.00;99.90;;;;;;4993299;28;20185;-77
2023/03/22 03:48:02;;;;;;;7.15;5.25;;;12.00;99.90;;;;;;4999118;28;20175;-78
2023/03/22 03:50:29;;;;;;;6.97;4.80;;;12.10;99.90;;;;;;4973479;28;20243;-73
2023/03/22 03:52:55;;;;;;;7.07;5.25;;;12.00;99.90;;;;;;4994495;28;20207;-67
2023/03/22 03:55:25;;;;;;;5.50;4.38;;;12.00;99.90;;;;;;4995870;28;20187;-64
2023/03/22 03:57:51;;;;;;;5.95;4.72;;;12.00;99.90;;;;;;4976338;28;20211;-68
2023/03/22 04:00:17;;;;;;;6.50;4.38;;;12.00;99.90;;;;;;4982755;28;20179;-68
2023/03/22 04:02:45;;;;;;;6.70;4.63;;;12.00;99.90;;;;;;4992203;28;20184;-67
2023/03/22 04:05:12;;;;;;;5.93;4.55;;;12.00;99.90;;;;;;4993159;28;20188;-68
2023/03/22 04:07:38;;;;;;;7.22;4.50;;;11.90;99.90;;;;;;4975424;28;20180;-67
2023/03/22 04:10:04;;;;;;;5.28;3.85;;;11.90;99.90;;;;;;4992346;28;20211;-67
2023/03/22 04:12:33;;;;;;;5.80;4.30;;;11.90;99.90;;;;;;4992719;28;20196;-67
2023/03/22 04:14:59;;;;;;;6.13;3.97;;;11.90;99.90;;;;;;4974811;28;20176;-67
2023/03/22 04:17:27;;;;;;;5.30;3.97;;;11.90;99.90;;;;;;4971143;28;20203;-66
2023/03/22 04:19:55;;;;;;;5.75;4.15;;;11.90;99.90;;;;;;4974367;28;20176;-67
2023/03/22 04:22:21;;;;;;;5.50;3.88;;;11.90;99.90;;;;;;4975679;28;20193;-67
2023/03/22 04:24:48;;;;;;;5.38;4.13;;;11.90;99.90;;;;;;4985158;28;20239;-67
2023/03/22 04:27:19;;;;;;;4.72;4.00;;;11.80;99.90;;;;;;4990658;28;20180;-66
2023/03/22 04:29:47;;;;;;;4.95;3.92;;;11.80;99.90;;;;;;4991341;28;20199;-66
2023/03/22 04:32:25;;;;;;;4.82;3.53;;;11.80;99.90;;;;;;4973340;28;20254;-68
2023/03/22 04:34:52;;;;;;;4.00;3.40;;;11.80;99.90;;;;;;4986190;28;20258;-65
2023/03/22 04:37:18;;;;;;;5.60;3.50;;;11.80;99.90;;;;;;4967258;28;20235;-68
2023/03/22 04:39:44;;;;;;;5.03;3.67;;;11.80;99.90;;;;;;4988334;28;20219;-66
2023/03/22 04:42:13;;;;;;;4.13;3.08;;;11.80;99.90;;;;;;4988407;28;20263;-67
2023/03/22 04:44:41;;;;;;;4.75;3.55;;;11.80;99.90;;;;;;4975027;28;20227;-65
2023/03/22 04:47:06;;;;;;;4.88;3.45;;;11.70;99.90;;;;;;4987619;28;20187;-68
2023/03/22 04:49:32;;;;;;;3.33;3.03;;;11.70;99.90;;;;;;4984761;28;20176;-67
2023/03/22 04:51:58;;;;;;;5.22;3.25;;;11.70;99.90;;;;;;4975377;28;20196;-65
2023/03/22 04:54:23;;;;;;;4.50;3.22;;;11.70;99.90;;;;;;4974620;28;20179;-66
2023/03/22 04:56:49;;;;;;;3.55;3.00;;;11.70;99.90;;;;;;4975558;28;20399;-66
2023/03/22 04:59:19;;;;;;;4.70;3.30;;;11.70;99.90;;;;;;4975427;28;20176;-68
2023/03/22 05:01:50;;;;;;;4.32;3.40;;;11.70;99.90;;;;;;4977664;28;20235;-68
2023/03/22 05:04:16;;;;;;;4.80;3.13;;;11.60;99.90;;;;;;4974299;28;20203;-64
2023/03/22 05:06:45;;;;;;;3.83;3.25;;;11.60;99.90;;;;;;4998494;28;20206;-67
2023/03/22 05:09:13;;;;;;;4.82;3.20;;;11.60;99.90;;;;;;4993452;28;20195;-68
2023/03/22 05:11:42;;;;;;;4.50;3.20;;;11.60;99.90;;;;;;4991081;28;20203;-68
2023/03/22 05:14:10;;;;;;;4.80;2.83;;;11.60;99.90;;;;;;4990320;28;20176;-63
2023/03/22 05:16:39;;;;;;;5.05;3.22;;;11.60;99.90;;;;;;4975074;28;20343;-68
2023/03/22 05:19:12;;;;;;;4.88;3.03;;;11.60;99.90;;;;;;4979072;28;20187;-68
2023/03/22 05:21:39;;;;;;;3.97;3.05;;;11.60;99.90;;;;;;4971557;28;20192;-68
2023/03/22 05:24:08;;;;;;;3.45;3.00;;;11.60;99.90;;;;;;4968159;28;20291;-68
2023/03/22 05:26:41;;;;;;;4.22;3.15;;;11.60;99.90;;;;;;4989472;28;20215;-67
2023/03/22 05:29:10;;;;;;;3.85;3.15;;;11.70;99.90;;;;;;4971196;28;20187;-67
2023/03/22 05:31:36;;;;;;;3.97;3.13;;;11.60;99.90;;;;;;4955404;28;20212;-65
2023/03/22 05:34:02;;;;;;;8.00;3.50;;;11.60;99.90;;;;;;4990519;28;20184;-66
2023/03/22 05:36:30;;;;;;;5.07;3.97;;;11.60;99.90;;;;;;4990308;28;20250;-68
2023/03/22 05:38:56;;;;;;;4.65;3.38;;;11.60;99.90;;;;;;4991237;28;20186;-66
2023/03/22 05:41:24;;;;;;;4.70;3.60;;;11.50;99.90;;;;;;4986600;28;20267;-68
2023/03/22 05:43:54;;;;;;;5.35;3.60;;;11.50;99.90;;;;;;4981516;28;20195;-67
2023/03/22 05:46:22;;;;;;;4.97;3.05;;;11.50;99.90;;;;;;4990843;28;20180;-68
2023/03/22 05:48:50;;;;;;;4.55;3.55;;;11.40;99.90;;;;;;4974336;28;20242;-67
2023/03/22 05:51:16;;;;;;;4.53;3.63;;;11.40;99.90;;;;;;4989277;28;20207;-68
2023/03/22 05:53:50;;;;;;;9.40;7.00;;;11.40;99.90;;;;;;4955486;29;20183;-62
2023/03/22 05:56:16;;;;;;;6.75;4.57;;;11.30;99.90;;;;;;4990505;28;20196;-68
2023/03/22 05:58:44;;;;;;;4.32;3.72;;;11.40;99.90;;;;;;4974766;28;20237;-68
2023/03/22 06:01:15;;;;;;;4.55;3.53;;;11.40;99.90;;;;;;4974288;28;20176;-68
2023/03/22 06:03:44;;;;;;;5.20;3.38;;;11.50;99.90;;;;;;4988078;28;20283;-68
2023/03/22 06:06:09;;;;;;;8.80;4.05;;;11.50;99.90;;;;;;4974159;28;20188;-68
2023/03/22 06:08:36;;;;;;;5.07;3.65;;;11.50;99.90;;;;;;4986764;28;20242;-68
2023/03/22 06:11:02;;;;;;;4.38;3.53;;;11.60;99.90;;;;;;4991366;28;20211;-68
2023/03/22 06:13:31;;;;;;;7.03;4.68;;;11.60;99.90;;;;;;4989383;28;20188;-68
2023/03/22 06:16:02;;;;;;;9.70;6.82;;;11.60;99.90;;;;;;4979381;28;20266;-68
2023/03/22 06:18:31;;;;;;;6.85;4.80;;;11.60;99.90;;;;;;4977971;28;20172;-67
2023/03/22 06:20:57;;;;;;;5.38;4.20;;;11.70;99.90;;;;;;4994673;28;20204;-68
2023/03/22 06:23:25;;;;;;;5.97;4.10;;;11.70;99.90;;;;;;4971328;28;20181;-68
2023/03/22 06:25:51;;;;;;;7.20;4.45;;;11.70;99.90;;;;;;4961954;28;20180;-67
2023/03/22 06:28:21;;;;;;;6.50;4.28;;;11.80;99.90;;;;;;4994476;28;20299;-68
2023/03/22 06:30:49;;;;;;;6.55;3.90;;;11.80;99.90;;;;;;4978104;28;20200;-67
2023/03/22 06:33:15;;;;;;;5.20;3.38;;;11.90;99.90;;;;;;4993920;28;20434;-67
2023/03/22 06:35:43;;;;;;;6.30;3.60;;;11.90;99.90;;;;;;4994269;28;20269;-69
2023/03/22 06:38:09;;;;;;;5.63;3.38;;;12.00;99.90;;;;;;4993102;28;20458;-66
2023/03/22 06:40:36;;;;;;;4.20;3.33;;;12.00;99.90;;;;;;4977240;28;20200;-68
2023/03/22 06:43:05;;;;;;;4.72;3.50;;;12.10;99.90;;;;;;4993782;28;20196;-66
2023/03/22 06:45:33;;;;;;;3.95;3.45;;;12.20;99.90;;;;;;4993699;28;20203;-68
2023/03/22 06:48:01;;;;;;;9.20;3.20;;;12.20;99.90;;;;;;4977198;28;20214;-68
2023/03/22 06:50:27;;;;;;;4.75;3.25;;;12.30;99.90;;;;;;4993498;28;20211;-68
2023/03/22 06:52:58;;;;;;;3.95;2.75;;;12.30;99.90;;;;;;4994156;28;20180;-65
2023/03/22 06:55:24;;;;;;;5.00;2.75;;;12.40;99.90;;;;;;4974821;28;20168;-69
2023/03/22 06:57:49;;;;;;;4.28;2.95;;;12.40;99.90;;;;;;4977818;28;20187;-69
2023/03/22 07:00:18;;;;;;;4.47;2.60;;;12.50;99.90;;;;;;4994232;28;20223;-69
2023/03/22 07:02:43;;;;;;;5.82;2.80;;;12.50;99.90;;;;;;4994214;28;20207;-68
2023/03/22 07:05:09;;;;;;;3.33;2.38;;;12.50;99.90;;;;;;4977809;28;20238;-69
2023/03/22 07:07:35;;;;;;;4.00;2.65;;;12.60;99.90;;;;;;4981409;28;20180;-69
2023/03/22 07:10:03;;;;;;;3.85;2.63;;;12.70;99.90;;;;;;4990667;28;20206;-68
2023/03/22 07:12:30;;;;;;;4.32;2.60;;;12.70;99.90;;;;;;4977798;28;20211;-65
2023/03/22 07:14:56;;;;;;;3.58;2.55;;;12.80;99.90;;;;;;4993981;28;20172;-69
2023/03/22 07:17:24;;;;;;;3.65;2.22;;;12.90;99.90;;;;;;4985260;28;20245;-68
2023/03/22 07:19:52;;;;;;;5.25;2.42;;;13.00;99.90;;;;;;4977738;28;20207;-69
2023/03/22 07:22:21;;;;;;;3.33;1.95;;;13.00;99.90;;;;;;4993653;28;20176;-68
2023/03/22 07:24:52;;;;;;;3.97;1.98;;;13.20;99.90;;;;;;4974029;28;20191;-69
2023/03/22 07:27:18;;;;;;;3.35;2.03;;;13.20;99.90;;;;;;4990952;28;20239;-68
2023/03/22 07:29:43;;;;;;;2.42;1.85;;;13.40;99.90;;;;;;4977480;28;20172;-69
2023/03/22 07:32:15;;;;;;;2.33;1.70;;;13.40;99.90;;;;;;4989660;28;20184;-67
2023/03/22 07:34:40;;;;;;;3.33;2.00;;;13.50;99.90;;;;;;4977375;28;20172;-69
2023/03/22 07:37:07;;;;;;;3.65;1.90;;;13.60;99.90;;;;;;4964844;28;20492;-68
2023/03/22 07:39:34;;;;;;;3.17;1.90;;;13.70;99.90;;;;;;4974764;28;20200;-68
2023/03/22 07:41:59;;;;;;;3.05;1.80;;;13.80;99.90;;;;;;4993817;28;20168;-69
2023/03/22 07:44:25;;;;;;;5.75;1.98;;;13.90;99.90;;;;;;4975486;28;20263;-69
2023/03/22 07:46:51;;;;;;;5.00;1.75;;;14.00;99.90;;;;;;4967848;28;20210;-69
2023/03/22 07:49:17;;;;;;;3.58;1.70;;;14.10;99.90;;;;;;4977153;28;20188;-65
2023/03/22 07:51:43;;;;;;;3.95;1.40;;;14.10;99.90;;;;;;4975682;28;20511;-69
2023/03/22 07:54:09;;;;;;;4.70;1.75;;;14.20;99.90;;;;;;4977567;28;20184;-69
2023/03/22 07:56:35;;;;;;;4.35;1.70;;;14.30;99.90;;;;;;4992810;28;20242;-68
2023/03/22 07:59:03;;;;;;;3.63;1.60;;;14.30;99.90;;;;;;4993151;28;20195;-68
2023/03/22 08:01:31;;;;;;;4.07;1.63;;;14.30;99.90;;;;;;4974143;28;20177;-65
2023/03/22 08:03:56;;;;;;;3.33;1.60;;;14.40;99.90;;;;;;4976729;28;20196;-69
2023/03/22 08:06:22;;;;;;;5.50;1.75;;;14.50;99.90;;;;;;4981586;28;20277;-69
2023/03/22 08:08:50;;;;;;;3.35;1.60;;;14.40;99.90;;;;;;4976971;28;20207;-69
2023/03/22 08:11:18;;;;;;;1.98;1.40;;;14.50;99.90;;;;;;4993124;28;20208;-69
2023/03/22 08:13:43;;;;;;;2.33;1.48;;;14.50;99.90;;;;;;4976876;28;20179;-68
2023/03/22 08:16:09;;;;;;;3.75;1.73;;;14.50;99.90;;;;;;4975268;28;20265;-67
2023/03/22 08:18:35;;;;;;;2.78;1.48;;;14.50;99.90;;;;;;4980129;28;20204;-69
2023/03/22 08:21:00;;;;;;;2.53;1.33;;;14.50;99.90;;;;;;4976383;28;20202;-69
2023/03/22 08:23:27;;;;;;;4.35;1.48;;;14.50;99.90;;;;;;4993070;28;20176;-71
2023/03/22 08:25:53;;;;;;;2.00;1.10;;;14.50;99.90;;;;;;4976149;28;20180;-67
2023/03/22 08:28:19;;;;;;;3.30;1.35;;;14.50;99.90;;;;;;4976607;28;20271;-67
2023/03/22 08:30:48;;;;;;;3.10;1.30;;;14.60;99.90;;;;;;4976031;28;20210;-66
2023/03/22 08:33:15;;;;;;;2.85;1.33;;;14.60;99.90;;;;;;4976057;28;20180;-68
2023/03/22 08:35:41;;;;;;;2.58;1.40;;;14.70;99.90;;;;;;4976564;28;20225;-68
2023/03/22 08:38:09;;;;;;;2.60;1.10;;;14.80;99.90;;;;;;4991570;28;20258;-69
2023/03/22 08:40:35;;;;;;;3.13;1.20;;;14.80;99.90;;;;;;4991987;28;20190;-68
2023/03/22 08:43:01;;;;;;;3.08;1.35;;;14.90;99.90;;;;;;4980249;28;20275;-68
2023/03/22 08:45:27;;;;;;;3.75;1.67;;;14.90;99.90;;;;;;4992160;28;20176;-68
2023/03/22 08:47:59;;;;;;;2.25;1.30;;;15.00;99.90;;;;;;4976075;28;20184;-65
2023/03/22 08:50:25;;;;;;;3.25;1.40;;;15.00;99.90;;;;;;4973375;28;20291;-68
2023/03/22 08:52:52;;;;;;;1.23;0.90;;;15.00;99.90;;;;;;4989153;28;20323;-68
2023/03/22 08:55:18;;;;;;;1.67;1.10;;;15.10;99.90;;;;;;4975610;28;20172;-68
2023/03/22 08:57:49;;;;;;;2.50;1.10;;;15.10;99.90;;;;;;4990970;28;20200;-69
2023/03/22 09:00:16;;;;;;;2.00;1.10;;;15.20;99.90;;;;;;4975807;28;20187;-67
2023/03/22 09:02:44;;;;;;;4.07;1.02;;;15.20;99.90;;;;;;4983478;28;20215;-69
2023/03/22 09:05:12;;;;;;;3.95;1.10;;;15.30;99.90;;;;;;4979045;28;20187;-70
2023/03/22 09:07:37;;;;;;;2.45;1.00;;;15.30;99.90;;;;;;4975720;28;20198;-69
2023/03/22 09:10:03;;;;;;;2.50;1.10;;;15.40;99.90;;;;;;4975759;28;20204;-68
2023/03/22 09:12:29;;;;;;;1.63;0.80;;;15.40;99.90;;;;;;4976118;28;20172;-67
2023/03/22 09:14:55;;;;;;;1.35;0.82;;;15.50;99.90;;;;;;4991569;28;20235;-67
2023/03/22 09:17:22;;;;;;;1.75;0.90;;;15.50;99.90;;;;;;4991662;28;20238;-70
2023/03/22 09:19:50;;;;;;;2.28;1.05;;;15.60;99.90;;;;;;4976308;28;20199;-68
2023/03/22 09:22:18;;;;;;;2.55;0.90;;;15.60;99.90;;;;;;4991839;28;20180;-68
2023/03/22 09:24:46;;;;;;;3.80;1.10;;;15.70;99.90;;;;;;4975851;28;20188;-67
2023/03/22 09:27:12;;;;;;;1.63;0.90;;;15.70;99.90;;;;;;4975668;28;20373;-68
2023/03/22 09:29:37;;;;;;;2.53;0.80;;;15.70;99.90;;;;;;4975595;28;20242;-66
2023/03/22 09:32:05;;;;;;;1.85;0.82;;;15.80;99.90;;;;;;4991611;28;20179;-68
2023/03/22 09:34:31;;;;;;;1.50;0.80;;;15.80;99.90;;;;;;4970434;28;20185;-67
2023/03/22 09:36:57;;;;;;;2.60;0.90;;;15.80;99.90;;;;;;4977032;28;20179;-68
2023/03/22 09:39:23;;;;;;;2.33;0.93;;;15.80;99.90;;;;;;4975190;28;20183;-68
2023/03/22 09:41:53;;;;;;;1.70;0.88;;;15.80;99.90;;;;;;4975490;28;20207;-66
2023/03/22 09:44:34;;;;;;;2.05;0.70;;;15.80;99.90;;;;;;4991534;28;20180;-69
2023/03/22 09:47:02;;;;;;;1.30;0.80;;;15.80;99.90;;;;;;4984197;28;20274;-67
2023/03/22 09:49:37;;;;;;;2.17;0.80;;;15.80;99.90;;;;;;4976126;28;20207;-67
2023/03/22 09:52:14;;;;;;;2.42;0.90;;;16.00;99.90;;;;;;4995129;28;20191;-67
2023/03/22 09:54:46;;;;;;;2.08;0.93;;;16.20;99.90;;;;;;4979382;28;20191;-69
2023/03/22 09:57:24;;;;;;;2.47;0.82;;;16.50;99.90;;;;;;4981354;28;20183;-68
2023/03/22 10:00:07;;;;;;;2.78;1.00;;;16.80;99.90;;;;;;4983516;28;20175;-70
2023/03/22 10:03:11;;;;;;;3.33;0.80;;;17.20;99.90;;;;;;4995581;28;20204;-68
2023/03/22 10:05:58;;;;;;;3.30;1.13;;;17.50;99.90;;;;;;4995352;28;20179;-69
2023/03/22 10:08:47;;;;;;;2.05;0.80;;;17.70;99.90;;;;;;4978940;28;20204;-68
2023/03/22 10:11:47;;;;;;;1.23;0.60;;;17.70;99.90;;;;;;4987082;28;20207;-68
2023/03/22 10:14:22;;;;;;;1.98;0.75;;;17.80;99.90;;;;;;4990633;28;20211;-68
2023/03/22 10:16:53;;;;;;;3.45;0.82;;;17.80;99.90;;;;;;4995455;28;20271;-70
2023/03/22 10:19:27;;;;;;;1.95;0.73;;;17.70;99.90;;;;;;4979129;28;20176;-67
2023/03/22 10:22:00;;;;;;;2.20;0.70;;;17.70;99.90;;;;;;4971223;28;20211;-66
2023/03/22 10:24:40;;;;;;;2.17;0.52;;;17.70;99.90;;;;;;4976943;28;20419;-69
2023/03/22 10:27:18;;;;;;;2.05;0.65;;;17.60;99.90;;;;;;4993132;28;20274;-68
2023/03/22 10:30:07;;;;;;;4.53;0.70;;;17.60;99.90;;;;;;4974948;28;20208;-69
2023/03/22 10:32:47;;;;;;;1.63;0.65;;;17.60;99.90;;;;;;4979987;28;20172;-67
2023/03/22 10:35:15;;;;;;;1.70;0.85;;;17.60;99.90;;;;;;4986922;28;20196;-69
2023/03/22 10:37:47;;;;;;;1.48;0.70;;;17.60;99.90;;;;;;4990934;28;20203;-68
2023/03/22 10:40:25;;;;;;;2.63;0.70;;;17.70;99.90;;;;;;4977636;28;20242;-69
2023/03/22 10:42:59;;;;;;;1.55;0.80;;;17.60;99.90;;;;;;4994447;28;20244;-67
2023/03/22 10:45:26;;;;;;;1.85;0.77;;;17.60;99.90;;;;;;4992347;28;20430;-65
2023/03/22 10:48:03;;;;;;;2.28;0.90;;;17.50;99.90;;;;;;4983576;28;20201;-68
2023/03/22 10:50:40;;;;;;;2.92;0.80;;;17.40;99.90;;;;;;4966914;28;20434;-69
2023/03/22 10:53:14;;;;;;;1.35;0.68;;;17.40;99.90;;;;;;4963441;28;20263;-67
2023/03/22 10:55:41;;;;;;;2.80;0.93;;;17.40;99.90;;;;;;4993634;28;20287;-67
2023/03/22 10:58:13;;;;;;;2.08;0.60;;;17.30;99.90;;;;;;4982996;28;20180;-68
2023/03/22 11:00:47;;;;;;;2.25;0.85;;;17.30;99.90;;;;;;4992960;28;20234;-69
2023/03/22 11:03:30;;;;;;;1.98;0.80;;;17.40;99.90;;;;;;4977176;28;20204;-67
2023/03/22 11:06:10;;;;;;;1.88;0.80;;;17.50;99.90;;;;;;4985600;28;20188;-68
2023/03/22 11:09:00;;;;;;;1.55;1.00;;;17.50;99.90;;;;;;4977129;28;20163;-66
2023/03/22 11:11:34;;;;;;;2.17;0.90;;;17.50;99.90;;;;;;4992292;28;20292;-69
2023/03/22 11:14:08;;;;;;;1.95;0.65;;;17.50;99.90;;;;;;4977313;28;20170;-68
2023/03/22 11:17:11;;;;;;;3.20;0.90;;;17.40;99.90;;;;;;4977359;28;20176;-68
2023/03/22 11:19:40;;;;;;;1.45;0.93;;;17.40;99.90;;;;;;4964685;28;20266;-66
2023/03/22 11:22:34;;;;;;;3.00;0.90;;;17.40;99.90;;;;;;4974755;28;20185;-67
2023/03/22 11:25:01;;;;;;;2.47;0.80;;;17.40;99.90;;;;;;4972083;28;20184;-68
2023/03/22 11:27:32;;;;;;;2.22;0.85;;;17.40;99.90;;;;;;4991035;28;20186;-64
2023/03/22 11:30:15;;;;;;;2.30;0.90;;;17.30;99.90;;;;;;4984846;28;20184;-68
2023/03/22 11:32:43;;;;;;;2.10;0.90;;;17.30;99.90;;;;;;4977026;28;20206;-68
2023/03/22 11:35:25;;;;;;;1.73;1.10;;;17.20;99.90;;;;;;4992831;28;20203;-64
2023/03/22 11:37:53;;;;;;;1.95;0.80;;;17.20;99.90;;;;;;4992799;28;20227;-67
2023/03/22 11:40:20;;;;;;;1.27;0.80;;;17.10;99.90;;;;;;4980953;28;20223;-65
2023/03/22 11:42:51;;;;;;;1.60;0.70;;;17.10;99.90;;;;;;4981909;28;20173;-68
2023/03/22 11:45:28;;;;;;;2.05;0.80;;;17.10;99.90;;;;;;4973738;28;20208;-69
2023/03/22 11:48:03;;;;;;;2.55;0.90;;;17.00;99.90;;;;;;4984744;28;20175;-67
2023/03/22 11:50:34;;;;;;;2.67;0.90;;;17.00;99.90;;;;;;4992763;28;20230;-68
2023/03/22 11:53:04;;;;;;;2.65;0.77;;;17.00;99.90;;;;;;4976292;28;20176;-69
2023/03/22 11:55:30;;;;;;;1.58;0.90;;;17.00;99.90;;;;;;4992648;28;20172;-67
2023/03/22 11:58:00;;;;;;;2.15;0.90;;;17.00;99.90;;;;;;4992031;28;20207;-67
2023/03/22 12:00:30;;;;;;;3.85;0.75;;;16.90;99.90;;;;;;4973843;28;20200;-67
2023/03/22 12:03:08;;;;;;;1.33;0.65;;;16.90;99.90;;;;;;4972949;28;20177;-64
2023/03/22 12:05:37;;;;;;;1.77;0.70;;;16.90;99.90;;;;;;4981044;28;20180;-64
2023/03/22 12:08:10;;;;;;;2.25;0.82;;;16.90;99.90;;;;;;4969254;28;20222;-65
2023/03/22 12:10:40;;;;;;;3.15;0.98;;;16.90;99.90;;;;;;4991038;28;20218;-64
2023/03/22 12:13:42;;;;;;;3.75;0.85;;;16.90;99.90;;;;;;4992651;28;20176;-65
2023/03/22 12:16:12;;;;;;;2.75;0.98;;;16.90;99.90;;;;;;4955563;28;20242;-65
2023/03/22 12:19:03;;;;;;;2.33;1.00;;;16.80;99.90;;;;;;4983925;28;20191;-65
2023/03/22 12:21:32;;;;;;;3.35;1.05;;;16.90;99.90;;;;;;4978588;28;20204;-64
2023/03/22 12:24:02;;;;;;;2.63;0.98;;;16.80;99.90;;;;;;4991682;28;20211;-65
2023/03/22 12:26:29;;;;;;;3.47;1.10;;;16.80;99.90;;;;;;4992124;28;20180;-65
2023/03/22 12:29:00;;;;;;;2.83;1.00;;;16.70;99.90;;;;;;4991478;28;20211;-65
2023/03/22 12:31:30;;;;;;;2.53;1.00;;;16.70;99.90;;;;;;5009290;28;20418;-65
2023/03/22 12:34:03;;;;;;;2.22;0.93;;;16.60;99.90;;;;;;4977168;28;20188;-65
2023/03/22 12:36:33;;;;;;;2.92;1.10;;;16.50;99.90;;;;;;4992095;28;20196;-64
2023/03/22 12:39:01;;;;;;;1.83;1.02;;;16.50;99.90;;;;;;4991663;28;20188;-65
2023/03/22 12:41:34;;;;;;;2.75;1.42;;;16.50;99.90;;;;;;4978558;28;20265;-65
2023/03/22 12:44:23;;;;;;;1.75;1.08;;;16.40;99.90;;;;;;4991597;28;20184;-65
2023/03/22 12:46:55;;;;;;;2.45;1.05;;;16.40;99.90;;;;;;4978671;28;20271;-65
2023/03/22 12:49:40;;;;;;;2.95;0.73;;;16.40;99.90;;;;;;4991738;28;20262;-64
2023/03/22 12:52:41;;;;;;;1.50;0.98;;;16.30;99.90;;;;;;4978155;28;20207;-65
2023/03/22 12:55:09;;;;;;;3.20;0.95;;;16.20;99.90;;;;;;4975852;28;20226;-66
2023/03/22 12:57:37;;;;;;;2.75;0.80;;;16.20;99.90;;;;;;4976085;28;20445;-66
2023/03/22 13:00:12;;;;;;;1.85;0.90;;;16.20;99.90;;;;;;4975499;28;20274;-66
2023/03/22 13:02:39;;;;;;;2.58;1.02;;;16.20;99.90;;;;;;4992123;28;20179;-66
2023/03/22 13:05:08;;;;;;;2.30;0.77;;;16.20;99.90;;;;;;4975611;28;20218;-66
2023/03/22 13:07:45;;;;;;;3.03;0.90;;;16.10;99.90;;;;;;4988483;28;20217;-66
2023/03/22 13:10:30;;;;;;;2.22;0.90;;;16.10;99.90;;;;;;4981586;28;20242;-66